sensor_id;sensor_type;location;lat;lon;timestamp;temperature;humidity
17621;DHT22;8929;51.008;6.804;2022-11-11T00:01:01;10.20;99.90
17621;DHT22;8929;51.008;6.804;2022-11-11T00:03:27;10.20;99.90
17621;DHT22;8929;51.008;6.804;2022-11-11T00:05:52;10.20;99.90
17621;DHT22;8929;51.008;6.804;2022-11-11T00:08:18;10.20;99.90
17621;DHT22;8929;51.008;6.804;2022-11-11T00:10:43;10.20;99.90
17621;DHT22;8929;51.008;6.804;2022-11-11T00:13:09;10.20;99.90
17621;DHT22;8929;51.008;6.804;2022-11-11T00:15:35;10.10;99.90
17621;DHT22;8929;51.008;6.804;2022-11-11T00:18:01;10.10;99.90
17621;DHT22;8929;51.008;6.804;2022-11-11T00:20:45;10.10;99.90
17621;DHT22;8929;51.008;6.804;2022-11-11T00:23:29;10.10;99.90
17621;DHT22;8929;51.008;6.804;2022-11-11T00:26:14;10.10;99.90
17621;DHT22;8929;51.008;6.804;2022-11-11T00:28:40;10.10;99.90
17621;DHT22;8929;51.008;6.804;2022-11-11T00:31:09;10.20;99.90
17621;DHT22;8929;51.008;6.804;2022-11-11T00:33:34;10.20;99.90
17621;DHT22;8929;51.008;6.804;2022-11-11T00:36:00;10.10;99.90
17621;DHT22;8929;51.008;6.804;2022-11-11T00:38:26;10.20;99.90
17621;DHT22;8929;51.008;6.804;2022-11-11T00:41:13;10.10;99.90
17621;DHT22;8929;51.008;6.804;2022-11-11T00:43:40;10.10;99.90
17621;DHT22;8929;51.008;6.804;2022-11-11T00:46:05;10.10;99.90
17621;DHT22;8929;51.008;6.804;2022-11-11T00:48:50;10.10;99.90
17621;DHT22;8929;51.008;6.804;2022-11-11T00:51:34;10.10;99.90
17621;DHT22;8929;51.008;6.804;2022-11-11T00:53:59;10.10;99.90
17621;DHT22;8929;51.008;6.804;2022-11-11T00:56:25;10.10;99.90
17621;DHT22;8929;51.008;6.804;2022-11-11T00:58:51;10.00;99.90
17621;DHT22;8929;51.008;6.804;2022-11-11T01:01:16;10.00;99.90
17621;DHT22;8929;51.008;6.804;2022-11-11T01:03:42;10.00;99.90
17621;DHT22;8929;51.008;6.804;2022-11-11T01:06:08;9.90;99.90
17621;DHT22;8929;51.008;6.804;2022-11-11T01:08:34;9.90;99.90
17621;DHT22;8929;51.008;6.804;2022-11-11T01:10:59;9.90;99.90
17621;DHT22;8929;51.008;6.804;2022-11-11T01:13:25;9.80;99.90
17621;DHT22;8929;51.008;6.804;2022-11-11T01:15:52;9.80;99.90
17621;DHT22;8929;51.008;6.804;2022-11-11T01:18:19;9.80;99.90
17621;DHT22;8929;51.008;6.804;2022-11-11T01:20:45;9.80;99.90
17621;DHT22;8929;51.008;6.804;2022-11-11T01:23:12;9.80;99.90
17621;DHT22;8929;51.008;6.804;2022-11-11T01:25:38;9.70;99.90
17621;DHT22;8929;51.008;6.804;2022-11-11T01:28:04;9.70;99.90
17621;DHT22;8929;51.008;6.804;2022-11-11T01:30:30;9.70;99.90
17621;DHT22;8929;51.008;6.804;2022-11-11T01:32:56;9.70;99.90
17621;DHT22;8929;51.008;6.804;2022-11-11T01:35:22;9.60;99.90
17621;DHT22;8929;51.008;6.804;2022-11-11T01:37:47;9.60;99.90
17621;DHT22;8929;51.008;6.804;2022-11-11T01:40:13;9.60;99.90
17621;DHT22;8929;51.008;6.804;2022-11-11T01:45:44;9.60;99.90
17621;DHT22;8929;51.008;6.804;2022-11-11T01:48:13;9.50;99.90
17621;DHT22;8929;51.008;6.804;2022-11-11T01:51:00;9.50;99.90
17621;DHT22;8929;51.008;6.804;2022-11-11T01:53:27;9.50;99.90
17621;DHT22;8929;51.008;6.804;2022-11-11T01:55:53;9.50;99.90
17621;DHT22;8929;51.008;6.804;2022-11-11T01:58:19;9.50;99.90
17621;DHT22;8929;51.008;6.804;2022-11-11T02:00:45;9.40;99.90
17621;DHT22;8929;51.008;6.804;2022-11-11T02:03:10;9.50;99.90
17621;DHT22;8929;51.008;6.804;2022-11-11T02:05:37;9.50;99.90
17621;DHT22;8929;51.008;6.804;2022-11-11T02:08:12;9.40;99.90
17621;DHT22;8929;51.008;6.804;2022-11-11T02:10:39;9.50;99.90
17621;DHT22;8929;51.008;6.804;2022-11-11T02:13:13;9.50;99.90
17621;DHT22;8929;51.008;6.804;2022-11-11T02:15:57;9.40;99.90
17621;DHT22;8929;51.008;6.804;2022-11-11T02:18:22;9.40;99.90
17621;DHT22;8929;51.008;6.804;2022-11-11T02:20:48;9.40;99.90
17621;DHT22;8929;51.008;6.804;2022-11-11T02:23:25;9.40;99.90
17621;DHT22;8929;51.008;6.804;2022-11-11T02:25:52;9.40;99.90
17621;DHT22;8929;51.008;6.804;2022-11-11T02:28:19;9.40;99.90
17621;DHT22;8929;51.008;6.804;2022-11-11T02:30:46;9.40;99.90
17621;DHT22;8929;51.008;6.804;2022-11-11T02:33:11;9.40;99.90
17621;DHT22;8929;51.008;6.804;2022-11-11T02:35:37;9.40;99.90
17621;DHT22;8929;51.008;6.804;2022-11-11T02:38:05;9.40;99.90
17621;DHT22;8929;51.008;6.804;2022-11-11T02:40:39;9.30;99.90
17621;DHT22;8929;51.008;6.804;2022-11-11T02:43:23;9.30;99.90
17621;DHT22;8929;51.008;6.804;2022-11-11T02:45:48;9.30;99.90
17621;DHT22;8929;51.008;6.804;2022-11-11T02:48:14;9.30;99.90
17621;DHT22;8929;51.008;6.804;2022-11-11T02:50:40;9.20;99.90
17621;DHT22;8929;51.008;6.804;2022-11-11T02:53:05;9.20;99.90
17621;DHT22;8929;51.008;6.804;2022-11-11T02:55:31;9.20;99.90
17621;DHT22;8929;51.008;6.804;2022-11-11T02:57:56;9.20;99.90
17621;DHT22;8929;51.008;6.804;2022-11-11T03:00:22;9.20;99.90
17621;DHT22;8929;51.008;6.804;2022-11-11T03:02:47;9.20;99.90
17621;DHT22;8929;51.008;6.804;2022-11-11T03:05:13;9.10;99.90
17621;DHT22;8929;51.008;6.804;2022-11-11T03:07:38;9.10;99.90
17621;DHT22;8929;51.008;6.804;2022-11-11T03:10:04;9.10;99.90
17621;DHT22;8929;51.008;6.804;2022-11-11T03:12:29;9.10;99.90
17621;DHT22;8929;51.008;6.804;2022-11-11T03:14:55;9.10;99.90
17621;DHT22;8929;51.008;6.804;2022-11-11T03:17:20;9.00;99.90
17621;DHT22;8929;51.008;6.804;2022-11-11T03:20:08;9.00;99.90
17621;DHT22;8929;51.008;6.804;2022-11-11T03:23:02;9.00;99.90
17621;DHT22;8929;51.008;6.804;2022-11-11T03:25:28;9.00;99.90
17621;DHT22;8929;51.008;6.804;2022-11-11T03:28:03;9.00;99.90
17621;DHT22;8929;51.008;6.804;2022-11-11T03:30:29;9.00;99.90
17621;DHT22;8929;51.008;6.804;2022-11-11T03:32:54;9.00;99.90
17621;DHT22;8929;51.008;6.804;2022-11-11T03:35:20;9.00;99.90
17621;DHT22;8929;51.008;6.804;2022-11-11T03:37:45;8.90;99.90
17621;DHT22;8929;51.008;6.804;2022-11-11T03:40:30;9.00;99.90
17621;DHT22;8929;51.008;6.804;2022-11-11T03:42:55;9.00;99.90
17621;DHT22;8929;51.008;6.804;2022-11-11T03:45:21;9.00;99.90
17621;DHT22;8929;51.008;6.804;2022-11-11T03:47:46;8.90;99.90
17621;DHT22;8929;51.008;6.804;2022-11-11T03:50:11;8.90;99.90
17621;DHT22;8929;51.008;6.804;2022-11-11T03:52:40;8.90;99.90
17621;DHT22;8929;51.008;6.804;2022-11-11T03:55:07;8.90;99.90
17621;DHT22;8929;51.008;6.804;2022-11-11T03:57:33;8.90;99.90
17621;DHT22;8929;51.008;6.804;2022-11-11T03:59:58;8.90;99.90
17621;DHT22;8929;51.008;6.804;2022-11-11T04:02:24;8.80;99.90
17621;DHT22;8929;51.008;6.804;2022-11-11T04:05:08;8.90;99.90
17621;DHT22;8929;51.008;6.804;2022-11-11T04:07:52;8.90;99.90
17621;DHT22;8929;51.008;6.804;2022-11-11T04:10:36;8.90;99.90
17621;DHT22;8929;51.008;6.804;2022-11-11T04:13:02;8.90;99.90
17621;DHT22;8929;51.008;6.804;2022-11-11T04:15:48;8.80;99.90
17621;DHT22;8929;51.008;6.804;2022-11-11T04:18:32;8.80;99.90
17621;DHT22;8929;51.008;6.804;2022-11-11T04:21:16;8.80;99.90
17621;DHT22;8929;51.008;6.804;2022-11-11T04:24:01;8.70;99.90
17621;DHT22;8929;51.008;6.804;2022-11-11T04:26:26;8.70;99.90
17621;DHT22;8929;51.008;6.804;2022-11-11T04:28:52;8.70;99.90
17621;DHT22;8929;51.008;6.804;2022-11-11T04:31:36;8.70;99.90
17621;DHT22;8929;51.008;6.804;2022-11-11T04:34:21;8.70;99.90
17621;DHT22;8929;51.008;6.804;2022-11-11T04:36:47;8.70;99.90
17621;DHT22;8929;51.008;6.804;2022-11-11T04:39:12;8.70;99.90
17621;DHT22;8929;51.008;6.804;2022-11-11T04:41:57;8.70;99.90
17621;DHT22;8929;51.008;6.804;2022-11-11T04:44:22;8.70;99.90
17621;DHT22;8929;51.008;6.804;2022-11-11T04:47:06;8.70;99.90
17621;DHT22;8929;51.008;6.804;2022-11-11T04:49:32;8.70;99.90
17621;DHT22;8929;51.008;6.804;2022-11-11T04:51:57;8.70;99.90
17621;DHT22;8929;51.008;6.804;2022-11-11T04:54:41;8.70;99.90
17621;DHT22;8929;51.008;6.804;2022-11-11T04:57:25;8.70;99.90
17621;DHT22;8929;51.008;6.804;2022-11-11T04:59:51;8.70;99.90
17621;DHT22;8929;51.008;6.804;2022-11-11T05:02:16;8.70;99.90
17621;DHT22;8929;51.008;6.804;2022-11-11T05:05:01;8.70;99.90
17621;DHT22;8929;51.008;6.804;2022-11-11T05:07:26;8.60;99.90
17621;DHT22;8929;51.008;6.804;2022-11-11T05:10:10;8.60;99.90
17621;DHT22;8929;51.008;6.804;2022-11-11T05:12:36;8.60;99.90
17621;DHT22;8929;51.008;6.804;2022-11-11T05:15:01;8.60;99.90
17621;DHT22;8929;51.008;6.804;2022-11-11T05:17:53;8.60;99.90
17621;DHT22;8929;51.008;6.804;2022-11-11T05:20:37;8.50;99.90
17621;DHT22;8929;51.008;6.804;2022-11-11T05:23:21;8.50;99.90
17621;DHT22;8929;51.008;6.804;2022-11-11T05:26:06;8.50;99.90
17621;DHT22;8929;51.008;6.804;2022-11-11T05:28:32;8.50;99.90
17621;DHT22;8929;51.008;6.804;2022-11-11T05:30:57;8.40;99.90
17621;DHT22;8929;51.008;6.804;2022-11-11T05:33:23;8.40;99.90
17621;DHT22;8929;51.008;6.804;2022-11-11T05:35:48;8.40;99.90
17621;DHT22;8929;51.008;6.804;2022-11-11T05:38:13;8.40;99.90
17621;DHT22;8929;51.008;6.804;2022-11-11T05:40:45;8.30;99.90
17621;DHT22;8929;51.008;6.804;2022-11-11T05:43:11;8.40;99.90
17621;DHT22;8929;51.008;6.804;2022-11-11T05:45:36;8.40;99.90
17621;DHT22;8929;51.008;6.804;2022-11-11T05:48:02;8.40;99.90
17621;DHT22;8929;51.008;6.804;2022-11-11T05:50:27;8.50;99.90
17621;DHT22;8929;51.008;6.804;2022-11-11T05:52:53;8.40;99.90
17621;DHT22;8929;51.008;6.804;2022-11-11T05:55:20;8.40;99.90
17621;DHT22;8929;51.008;6.804;2022-11-11T05:57:46;8.40;99.90
17621;DHT22;8929;51.008;6.804;2022-11-11T06:00:11;8.50;99.90
17621;DHT22;8929;51.008;6.804;2022-11-11T06:02:37;8.50;99.90
17621;DHT22;8929;51.008;6.804;2022-11-11T06:05:03;8.50;99.90
17621;DHT22;8929;51.008;6.804;2022-11-11T06:07:28;8.50;99.90
17621;DHT22;8929;51.008;6.804;2022-11-11T06:09:54;8.50;99.90
17621;DHT22;8929;51.008;6.804;2022-11-11T06:12:42;8.50;99.90
17621;DHT22;8929;51.008;6.804;2022-11-11T06:15:27;8.50;99.90
17621;DHT22;8929;51.008;6.804;2022-11-11T06:17:52;8.50;99.90
17621;DHT22;8929;51.008;6.804;2022-11-11T06:20:17;8.50;99.90
17621;DHT22;8929;51.008;6.804;2022-11-11T06:22:43;8.50;99.90
17621;DHT22;8929;51.008;6.804;2022-11-11T06:25:24;8.50;99.90
17621;DHT22;8929;51.008;6.804;2022-11-11T06:28:09;8.60;99.90
17621;DHT22;8929;51.008;6.804;2022-11-11T06:30:34;8.60;99.90
17621;DHT22;8929;51.008;6.804;2022-11-11T06:33:00;8.50;99.90
17621;DHT22;8929;51.008;6.804;2022-11-11T06:35:25;8.50;99.90
17621;DHT22;8929;51.008;6.804;2022-11-11T06:37:51;8.60;99.90
17621;DHT22;8929;51.008;6.804;2022-11-11T06:40:16;8.60;99.90
17621;DHT22;8929;51.008;6.804;2022-11-11T06:42:42;8.50;99.90
17621;DHT22;8929;51.008;6.804;2022-11-11T06:45:07;8.50;99.90
17621;DHT22;8929;51.008;6.804;2022-11-11T06:47:33;8.50;99.90
17621;DHT22;8929;51.008;6.804;2022-11-11T06:49:58;8.50;99.90
17621;DHT22;8929;51.008;6.804;2022-11-11T06:52:24;8.50;99.90
17621;DHT22;8929;51.008;6.804;2022-11-11T06:54:49;8.50;99.90
17621;DHT22;8929;51.008;6.804;2022-11-11T06:57:15;8.50;99.90
17621;DHT22;8929;51.008;6.804;2022-11-11T06:59:40;8.50;99.90
17621;DHT22;8929;51.008;6.804;2022-11-11T07:02:07;8.60;99.90
17621;DHT22;8929;51.008;6.804;2022-11-11T07:04:33;8.60;99.90
17621;DHT22;8929;51.008;6.804;2022-11-11T07:06:59;8.60;99.90
17621;DHT22;8929;51.008;6.804;2022-11-11T07:09:24;8.60;99.90
17621;DHT22;8929;51.008;6.804;2022-11-11T07:11:51;8.60;99.90
17621;DHT22;8929;51.008;6.804;2022-11-11T07:14:16;8.60;99.90
17621;DHT22;8929;51.008;6.804;2022-11-11T07:16:42;8.60;99.90
17621;DHT22;8929;51.008;6.804;2022-11-11T07:19:07;8.60;99.90
17621;DHT22;8929;51.008;6.804;2022-11-11T07:21:33;8.60;99.90
17621;DHT22;8929;51.008;6.804;2022-11-11T07:23:58;8.60;99.90
17621;DHT22;8929;51.008;6.804;2022-11-11T07:26:23;8.70;99.90
17621;DHT22;8929;51.008;6.804;2022-11-11T07:28:49;8.70;99.90
17621;DHT22;8929;51.008;6.804;2022-11-11T07:31:15;8.70;99.90
17621;DHT22;8929;51.008;6.804;2022-11-11T07:33:41;8.80;99.90
17621;DHT22;8929;51.008;6.804;2022-11-11T07:36:06;8.90;99.90
17621;DHT22;8929;51.008;6.804;2022-11-11T07:38:31;8.90;99.90
17621;DHT22;8929;51.008;6.804;2022-11-11T07:40:57;8.90;99.90
17621;DHT22;8929;51.008;6.804;2022-11-11T07:43:22;8.90;99.90
17621;DHT22;8929;51.008;6.804;2022-11-11T07:45:49;9.00;99.90
17621;DHT22;8929;51.008;6.804;2022-11-11T07:48:15;9.10;99.90
17621;DHT22;8929;51.008;6.804;2022-11-11T07:50:40;9.10;99.90
17621;DHT22;8929;51.008;6.804;2022-11-11T07:53:06;9.20;99.90
17621;DHT22;8929;51.008;6.804;2022-11-11T07:55:31;9.30;99.90
17621;DHT22;8929;51.008;6.804;2022-11-11T07:57:57;9.30;99.90
17621;DHT22;8929;51.008;6.804;2022-11-11T08:00:22;9.40;99.90
17621;DHT22;8929;51.008;6.804;2022-11-11T08:02:48;9.50;99.90
17621;DHT22;8929;51.008;6.804;2022-11-11T08:05:14;9.60;99.90
17621;DHT22;8929;51.008;6.804;2022-11-11T08:07:39;9.60;99.90
17621;DHT22;8929;51.008;6.804;2022-11-11T08:10:07;9.70;99.90
17621;DHT22;8929;51.008;6.804;2022-11-11T08:12:32;9.80;99.90
17621;DHT22;8929;51.008;6.804;2022-11-11T08:15:16;9.80;99.90
17621;DHT22;8929;51.008;6.804;2022-11-11T08:17:42;10.00;99.90
17621;DHT22;8929;51.008;6.804;2022-11-11T08:20:08;10.00;99.90
17621;DHT22;8929;51.008;6.804;2022-11-11T08:22:35;10.10;99.90
17621;DHT22;8929;51.008;6.804;2022-11-11T08:25:00;10.20;99.90
17621;DHT22;8929;51.008;6.804;2022-11-11T08:27:26;10.30;99.90
17621;DHT22;8929;51.008;6.804;2022-11-11T08:29:52;10.40;99.90
17621;DHT22;8929;51.008;6.804;2022-11-11T08:32:17;10.40;99.90
17621;DHT22;8929;51.008;6.804;2022-11-11T08:34:43;10.40;99.90
17621;DHT22;8929;51.008;6.804;2022-11-11T08:37:08;10.50;99.90
17621;DHT22;8929;51.008;6.804;2022-11-11T08:39:33;10.50;99.90
17621;DHT22;8929;51.008;6.804;2022-11-11T08:41:59;10.50;99.90
17621;DHT22;8929;51.008;6.804;2022-11-11T08:44:24;10.60;99.90
17621;DHT22;8929;51.008;6.804;2022-11-11T08:46:50;10.50;99.90
17621;DHT22;8929;51.008;6.804;2022-11-11T08:49:15;10.60;99.90
17621;DHT22;8929;51.008;6.804;2022-11-11T08:51:41;10.70;99.90
17621;DHT22;8929;51.008;6.804;2022-11-11T08:54:06;10.70;99.90
17621;DHT22;8929;51.008;6.804;2022-11-11T08:56:32;10.80;99.90
17621;DHT22;8929;51.008;6.804;2022-11-11T08:58:57;10.90;99.90
17621;DHT22;8929;51.008;6.804;2022-11-11T09:01:22;10.90;99.90
17621;DHT22;8929;51.008;6.804;2022-11-11T09:03:48;10.90;99.90
17621;DHT22;8929;51.008;6.804;2022-11-11T09:06:13;11.00;99.90
17621;DHT22;8929;51.008;6.804;2022-11-11T09:08:42;11.10;99.90
17621;DHT22;8929;51.008;6.804;2022-11-11T09:11:08;11.10;99.90
17621;DHT22;8929;51.008;6.804;2022-11-11T09:13:34;11.10;99.90
17621;DHT22;8929;51.008;6.804;2022-11-11T09:15:59;11.20;99.90
17621;DHT22;8929;51.008;6.804;2022-11-11T09:18:25;11.30;99.90
17621;DHT22;8929;51.008;6.804;2022-11-11T09:20:51;11.40;99.90
17621;DHT22;8929;51.008;6.804;2022-11-11T09:23:16;11.40;99.90
17621;DHT22;8929;51.008;6.804;2022-11-11T09:25:42;11.50;99.90
17621;DHT22;8929;51.008;6.804;2022-11-11T09:28:07;11.60;99.90
17621;DHT22;8929;51.008;6.804;2022-11-11T09:30:32;11.70;99.90
17621;DHT22;8929;51.008;6.804;2022-11-11T09:33:01;11.70;99.90
17621;DHT22;8929;51.008;6.804;2022-11-11T09:35:27;11.80;99.90
17621;DHT22;8929;51.008;6.804;2022-11-11T09:37:53;11.90;99.90
17621;DHT22;8929;51.008;6.804;2022-11-11T09:40:20;12.00;99.90
17621;DHT22;8929;51.008;6.804;2022-11-11T09:42:55;12.10;99.90
17621;DHT22;8929;51.008;6.804;2022-11-11T09:45:36;12.20;99.90
17621;DHT22;8929;51.008;6.804;2022-11-11T09:48:32;12.20;99.90
17621;DHT22;8929;51.008;6.804;2022-11-11T09:50:51;12.20;99.90
17621;DHT22;8929;51.008;6.804;2022-11-11T09:56:00;12.30;99.90
17621;DHT22;8929;51.008;6.804;2022-11-11T09:58:33;12.40;99.90
17621;DHT22;8929;51.008;6.804;2022-11-11T10:01:04;12.60;99.90
17621;DHT22;8929;51.008;6.804;2022-11-11T10:03:31;12.80;99.90
17621;DHT22;8929;51.008;6.804;2022-11-11T10:08:58;13.10;99.90
17621;DHT22;8929;51.008;6.804;2022-11-11T10:11:45;13.10;99.90
17621;DHT22;8929;51.008;6.804;2022-11-11T10:14:12;13.20;99.90
17621;DHT22;8929;51.008;6.804;2022-11-11T10:19:35;13.40;99.90
17621;DHT22;8929;51.008;6.804;2022-11-11T10:22:04;13.40;99.90
17621;DHT22;8929;51.008;6.804;2022-11-11T10:24:32;13.40;99.90
17621;DHT22;8929;51.008;6.804;2022-11-11T10:27:00;13.50;99.90
17621;DHT22;8929;51.008;6.804;2022-11-11T10:29:29;13.60;99.90
17621;DHT22;8929;51.008;6.804;2022-11-11T10:31:57;13.70;99.90
17621;DHT22;8929;51.008;6.804;2022-11-11T10:34:27;13.90;99.90
17621;DHT22;8929;51.008;6.804;2022-11-11T10:36:55;14.00;99.90
17621;DHT22;8929;51.008;6.804;2022-11-11T10:39:38;14.10;99.90
17621;DHT22;8929;51.008;6.804;2022-11-11T10:42:07;14.20;99.90
17621;DHT22;8929;51.008;6.804;2022-11-11T10:44:37;14.40;99.90
17621;DHT22;8929;51.008;6.804;2022-11-11T10:47:05;14.50;99.90
17621;DHT22;8929;51.008;6.804;2022-11-11T10:49:37;14.60;99.90
17621;DHT22;8929;51.008;6.804;2022-11-11T10:52:12;14.70;99.90
17621;DHT22;8929;51.008;6.804;2022-11-11T10:54:41;14.90;99.90
17621;DHT22;8929;51.008;6.804;2022-11-11T10:57:10;15.10;99.90
17621;DHT22;8929;51.008;6.804;2022-11-11T11:02:25;15.80;99.90
17621;DHT22;8929;51.008;6.804;2022-11-11T11:04:52;16.10;99.90
17621;DHT22;8929;51.008;6.804;2022-11-11T11:07:21;16.30;99.90
17621;DHT22;8929;51.008;6.804;2022-11-11T11:10:02;16.50;99.90
17621;DHT22;8929;51.008;6.804;2022-11-11T11:15:16;16.30;99.90
17621;DHT22;8929;51.008;6.804;2022-11-11T11:20:17;16.60;99.90
17621;DHT22;8929;51.008;6.804;2022-11-11T11:25:14;17.80;99.90
17621;DHT22;8929;51.008;6.804;2022-11-11T11:27:40;18.80;99.90
17621;DHT22;8929;51.008;6.804;2022-11-11T11:32:38;19.90;99.90
17621;DHT22;8929;51.008;6.804;2022-11-11T11:35:06;20.50;99.90
17621;DHT22;8929;51.008;6.804;2022-11-11T11:37:35;20.90;99.90
17621;DHT22;8929;51.008;6.804;2022-11-11T11:40:11;21.50;99.90
17621;DHT22;8929;51.008;6.804;2022-11-11T11:42:37;22.50;99.90
17621;DHT22;8929;51.008;6.804;2022-11-11T11:45:20;23.30;99.90
17621;DHT22;8929;51.008;6.804;2022-11-11T11:53:19;24.20;94.90
17621;DHT22;8929;51.008;6.804;2022-11-11T11:55:43;24.30;95.30
17621;DHT22;8929;51.008;6.804;2022-11-11T11:58:16;24.60;93.50
17621;DHT22;8929;51.008;6.804;2022-11-11T12:00:45;24.10;93.40
17621;DHT22;8929;51.008;6.804;2022-11-11T12:03:27;24.00;94.60
17621;DHT22;8929;51.008;6.804;2022-11-11T12:11:10;24.40;92.30
17621;DHT22;8929;51.008;6.804;2022-11-11T12:14:02;25.00;91.60
17621;DHT22;8929;51.008;6.804;2022-11-11T12:37:47;22.90;92.60
17621;DHT22;8929;51.008;6.804;2022-11-11T12:45:35;25.20;86.10
17621;DHT22;8929;51.008;6.804;2022-11-11T12:48:04;25.00;85.30
17621;DHT22;8929;51.008;6.804;2022-11-11T12:50:57;24.30;84.40
17621;DHT22;8929;51.008;6.804;2022-11-11T12:55:52;23.70;86.40
17621;DHT22;8929;51.008;6.804;2022-11-11T12:58:23;23.80;85.90
17621;DHT22;8929;51.008;6.804;2022-11-11T13:01:12;23.60;85.90
17621;DHT22;8929;51.008;6.804;2022-11-11T13:06:32;22.40;88.80
17621;DHT22;8929;51.008;6.804;2022-11-11T13:11:46;21.20;91.30
17621;DHT22;8929;51.008;6.804;2022-11-11T13:16:59;21.20;92.50
17621;DHT22;8929;51.008;6.804;2022-11-11T13:21:58;20.50;94.30
17621;DHT22;8929;51.008;6.804;2022-11-11T13:24:24;20.30;95.40
17621;DHT22;8929;51.008;6.804;2022-11-11T13:26:54;19.90;96.90
17621;DHT22;8929;51.008;6.804;2022-11-11T13:31:46;19.40;99.70
17621;DHT22;8929;51.008;6.804;2022-11-11T13:34:13;19.10;99.90
17621;DHT22;8929;51.008;6.804;2022-11-11T13:36:45;18.90;99.90
17621;DHT22;8929;51.008;6.804;2022-11-11T13:41:50;18.70;99.90
17621;DHT22;8929;51.008;6.804;2022-11-11T13:44:18;18.50;99.90
17621;DHT22;8929;51.008;6.804;2022-11-11T13:46:45;18.40;99.90
17621;DHT22;8929;51.008;6.804;2022-11-11T13:49:23;18.30;99.90
17621;DHT22;8929;51.008;6.804;2022-11-11T13:51:56;18.10;99.90
17621;DHT22;8929;51.008;6.804;2022-11-11T13:54:32;18.00;99.90
17621;DHT22;8929;51.008;6.804;2022-11-11T13:57:03;17.90;99.90
17621;DHT22;8929;51.008;6.804;2022-11-11T13:59:30;17.90;99.90
17621;DHT22;8929;51.008;6.804;2022-11-11T14:02:17;17.90;99.90
17621;DHT22;8929;51.008;6.804;2022-11-11T14:10:08;18.00;99.90
17621;DHT22;8929;51.008;6.804;2022-11-11T14:12:35;18.00;99.90
17621;DHT22;8929;51.008;6.804;2022-11-11T14:15:01;17.90;99.90
17621;DHT22;8929;51.008;6.804;2022-11-11T14:17:32;17.90;99.90
17621;DHT22;8929;51.008;6.804;2022-11-11T14:19:57;17.90;99.90
17621;DHT22;8929;51.008;6.804;2022-11-11T14:22:27;17.90;99.90
17621;DHT22;8929;51.008;6.804;2022-11-11T14:24:53;18.00;99.90
17621;DHT22;8929;51.008;6.804;2022-11-11T14:27:26;18.00;99.90
17621;DHT22;8929;51.008;6.804;2022-11-11T14:29:54;18.00;99.90
17621;DHT22;8929;51.008;6.804;2022-11-11T14:32:38;18.00;99.90
17621;DHT22;8929;51.008;6.804;2022-11-11T14:35:11;17.90;99.90
17621;DHT22;8929;51.008;6.804;2022-11-11T14:40:22;17.90;99.90
17621;DHT22;8929;51.008;6.804;2022-11-11T14:42:50;17.80;99.90
17621;DHT22;8929;51.008;6.804;2022-11-11T14:47:47;17.60;99.90
17621;DHT22;8929;51.008;6.804;2022-11-11T14:50:56;17.50;99.90
17621;DHT22;8929;51.008;6.804;2022-11-11T14:54:03;17.50;99.90
17621;DHT22;8929;51.008;6.804;2022-11-11T14:55:57;17.40;99.90
17621;DHT22;8929;51.008;6.804;2022-11-11T14:58:24;17.30;99.90
17621;DHT22;8929;51.008;6.804;2022-11-11T15:00:57;17.20;99.90
17621;DHT22;8929;51.008;6.804;2022-11-11T15:03:41;17.10;99.90
17621;DHT22;8929;51.008;6.804;2022-11-11T15:18:53;16.50;99.90
17621;DHT22;8929;51.008;6.804;2022-11-11T15:24:25;16.20;99.90
17621;DHT22;8929;51.008;6.804;2022-11-11T15:29:42;15.90;99.90
17621;DHT22;8929;51.008;6.804;2022-11-11T15:32:11;15.80;99.90
17621;DHT22;8929;51.008;6.804;2022-11-11T15:37:16;15.40;99.90
17621;DHT22;8929;51.008;6.804;2022-11-11T15:42:20;15.20;99.90
17621;DHT22;8929;51.008;6.804;2022-11-11T15:44:48;15.00;99.90
17621;DHT22;8929;51.008;6.804;2022-11-11T15:47:15;14.80;99.90
17621;DHT22;8929;51.008;6.804;2022-11-11T15:49:44;14.80;99.90
17621;DHT22;8929;51.008;6.804;2022-11-11T15:52:30;14.70;99.90
17621;DHT22;8929;51.008;6.804;2022-11-11T15:54:57;14.60;99.90
17621;DHT22;8929;51.008;6.804;2022-11-11T15:59:48;14.40;99.90
17621;DHT22;8929;51.008;6.804;2022-11-11T16:02:18;14.40;99.90
17621;DHT22;8929;51.008;6.804;2022-11-11T16:04:48;14.30;99.90
17621;DHT22;8929;51.008;6.804;2022-11-11T16:07:16;14.20;99.90
17621;DHT22;8929;51.008;6.804;2022-11-11T16:09:42;14.00;99.90
17621;DHT22;8929;51.008;6.804;2022-11-11T16:12:09;14.00;99.90
17621;DHT22;8929;51.008;6.804;2022-11-11T16:14:37;13.90;99.90
17621;DHT22;8929;51.008;6.804;2022-11-11T16:17:05;13.80;99.90
17621;DHT22;8929;51.008;6.804;2022-11-11T16:22:38;13.70;99.90
17621;DHT22;8929;51.008;6.804;2022-11-11T16:24:45;13.70;99.90
17621;DHT22;8929;51.008;6.804;2022-11-11T16:27:15;13.60;99.90
17621;DHT22;8929;51.008;6.804;2022-11-11T16:29:41;13.50;99.90
17621;DHT22;8929;51.008;6.804;2022-11-11T16:34:48;13.40;99.90
17621;DHT22;8929;51.008;6.804;2022-11-11T16:37:15;13.30;99.90
17621;DHT22;8929;51.008;6.804;2022-11-11T16:39:41;13.20;99.90
17621;DHT22;8929;51.008;6.804;2022-11-11T16:42:25;13.20;99.90
17621;DHT22;8929;51.008;6.804;2022-11-11T16:50:18;13.00;99.90
17621;DHT22;8929;51.008;6.804;2022-11-11T16:55:18;13.00;99.90
17621;DHT22;8929;51.008;6.804;2022-11-11T16:57:45;13.00;99.90
17621;DHT22;8929;51.008;6.804;2022-11-11T17:00:14;12.90;99.90
17621;DHT22;8929;51.008;6.804;2022-11-11T17:02:40;12.90;99.90
17621;DHT22;8929;51.008;6.804;2022-11-11T17:05:05;12.80;99.90
17621;DHT22;8929;51.008;6.804;2022-11-11T17:07:41;12.80;99.90
17621;DHT22;8929;51.008;6.804;2022-11-11T17:12:32;12.80;99.90
17621;DHT22;8929;51.008;6.804;2022-11-11T17:14:57;12.80;99.90
17621;DHT22;8929;51.008;6.804;2022-11-11T17:17:23;12.70;99.90
17621;DHT22;8929;51.008;6.804;2022-11-11T17:19:48;12.70;99.90
17621;DHT22;8929;51.008;6.804;2022-11-11T17:22:14;12.60;99.90
17621;DHT22;8929;51.008;6.804;2022-11-11T17:24:40;12.60;99.90
17621;DHT22;8929;51.008;6.804;2022-11-11T17:27:06;12.60;99.90
17621;DHT22;8929;51.008;6.804;2022-11-11T17:29:32;12.50;99.90
17621;DHT22;8929;51.008;6.804;2022-11-11T17:31:57;12.50;99.90
17621;DHT22;8929;51.008;6.804;2022-11-11T17:34:23;12.40;99.90
17621;DHT22;8929;51.008;6.804;2022-11-11T17:36:48;12.40;99.90
17621;DHT22;8929;51.008;6.804;2022-11-11T17:39:14;12.40;99.90
17621;DHT22;8929;51.008;6.804;2022-11-11T17:41:39;12.30;99.90
17621;DHT22;8929;51.008;6.804;2022-11-11T17:44:05;12.20;99.90
17621;DHT22;8929;51.008;6.804;2022-11-11T17:46:30;12.20;99.90
17621;DHT22;8929;51.008;6.804;2022-11-11T17:48:56;12.20;99.90
17621;DHT22;8929;51.008;6.804;2022-11-11T17:51:21;12.20;99.90
17621;DHT22;8929;51.008;6.804;2022-11-11T17:53:47;12.10;99.90
17621;DHT22;8929;51.008;6.804;2022-11-11T17:56:12;12.10;99.90
17621;DHT22;8929;51.008;6.804;2022-11-11T17:58:38;12.00;99.90
17621;DHT22;8929;51.008;6.804;2022-11-11T18:01:05;12.00;99.90
17621;DHT22;8929;51.008;6.804;2022-11-11T18:03:30;12.00;99.90
17621;DHT22;8929;51.008;6.804;2022-11-11T18:05:56;12.00;99.90
17621;DHT22;8929;51.008;6.804;2022-11-11T18:08:21;11.90;99.90
17621;DHT22;8929;51.008;6.804;2022-11-11T18:10:47;12.00;99.90
17621;DHT22;8929;51.008;6.804;2022-11-11T18:13:12;11.90;99.90
17621;DHT22;8929;51.008;6.804;2022-11-11T18:15:37;12.00;99.90
17621;DHT22;8929;51.008;6.804;2022-11-11T18:18:03;11.90;99.90